sensor_id;sensor_type;location;lat;lon;timestamp;P1;durP1;ratioP1;P2;durP2;ratioP2
59294;SDS011;45067;44.654;20.200;2022-10-16T00:00:18;9.18;;;4.43;;
59294;SDS011;45067;44.654;20.200;2022-10-16T00:05:48;6.13;;;4.30;;
59294;SDS011;45067;44.654;20.200;2022-10-16T00:08:14;7.63;;;4.78;;
59294;SDS011;45067;44.654;20.200;2022-10-16T00:10:40;8.15;;;4.95;;
59294;SDS011;45067;44.654;20.200;2022-10-16T00:13:07;7.10;;;4.45;;
59294;SDS011;45067;44.654;20.200;2022-10-16T00:15:34;9.30;;;4.57;;
59294;SDS011;45067;44.654;20.200;2022-10-16T00:18:04;8.23;;;5.20;;
59294;SDS011;45067;44.654;20.200;2022-10-16T00:20:33;6.38;;;4.40;;
59294;SDS011;45067;44.654;20.200;2022-10-16T00:22:59;7.53;;;4.50;;
59294;SDS011;45067;44.654;20.200;2022-10-16T00:25:25;11.38;;;4.55;;
59294;SDS011;45067;44.654;20.200;2022-10-16T00:27:51;7.88;;;4.63;;
59294;SDS011;45067;44.654;20.200;2022-10-16T00:30:17;7.97;;;4.80;;
59294;SDS011;45067;44.654;20.200;2022-10-16T00:35:47;8.32;;;4.30;;
59294;SDS011;45067;44.654;20.200;2022-10-16T00:38:13;7.07;;;4.40;;
59294;SDS011;45067;44.654;20.200;2022-10-16T00:40:39;7.10;;;4.70;;
59294;SDS011;45067;44.654;20.200;2022-10-16T00:46:18;6.78;;;4.53;;
59294;SDS011;45067;44.654;20.200;2022-10-16T00:49:01;7.75;;;4.43;;
59294;SDS011;45067;44.654;20.200;2022-10-16T00:51:34;7.65;;;4.28;;
59294;SDS011;45067;44.654;20.200;2022-10-16T00:54:01;8.65;;;4.28;;
59294;SDS011;45067;44.654;20.200;2022-10-16T00:56:28;6.35;;;4.25;;
59294;SDS011;45067;44.654;20.200;2022-10-16T00:58:54;12.02;;;4.78;;
59294;SDS011;45067;44.654;20.200;2022-10-16T01:01:20;7.13;;;4.63;;
59294;SDS011;45067;44.654;20.200;2022-10-16T01:03:46;8.38;;;4.38;;
59294;SDS011;45067;44.654;20.200;2022-10-16T01:06:27;5.97;;;4.10;;
59294;SDS011;45067;44.654;20.200;2022-10-16T01:09:17;6.13;;;4.43;;
59294;SDS011;45067;44.654;20.200;2022-10-16T01:11:54;8.30;;;4.60;;
59294;SDS011;45067;44.654;20.200;2022-10-16T01:14:32;8.68;;;4.40;;
59294;SDS011;45067;44.654;20.200;2022-10-16T01:17:10;7.00;;;4.45;;
59294;SDS011;45067;44.654;20.200;2022-10-16T01:22:22;5.35;;;4.10;;
59294;SDS011;45067;44.654;20.200;2022-10-16T01:24:51;9.20;;;4.32;;
59294;SDS011;45067;44.654;20.200;2022-10-16T01:27:26;7.50;;;4.30;;
59294;SDS011;45067;44.654;20.200;2022-10-16T01:35:05;9.90;;;4.38;;
59294;SDS011;45067;44.654;20.200;2022-10-16T01:37:36;7.85;;;4.30;;
59294;SDS011;45067;44.654;20.200;2022-10-16T01:40:05;8.85;;;3.78;;
59294;SDS011;45067;44.654;20.200;2022-10-16T01:42:34;10.02;;;4.60;;
59294;SDS011;45067;44.654;20.200;2022-10-16T01:45:02;7.78;;;4.63;;
59294;SDS011;45067;44.654;20.200;2022-10-16T01:47:31;7.75;;;4.53;;
59294;SDS011;45067;44.654;20.200;2022-10-16T01:49:57;8.20;;;4.30;;
59294;SDS011;45067;44.654;20.200;2022-10-16T01:52:26;8.55;;;4.53;;
59294;SDS011;45067;44.654;20.200;2022-10-16T01:54:54;9.05;;;4.85;;
59294;SDS011;45067;44.654;20.200;2022-10-16T01:57:21;7.85;;;5.10;;
59294;SDS011;45067;44.654;20.200;2022-10-16T01:59:48;7.53;;;4.38;;
59294;SDS011;45067;44.654;20.200;2022-10-16T02:02:17;7.78;;;4.45;;
59294;SDS011;45067;44.654;20.200;2022-10-16T02:04:45;10.10;;;4.82;;
59294;SDS011;45067;44.654;20.200;2022-10-16T02:07:12;6.72;;;4.25;;
59294;SDS011;45067;44.654;20.200;2022-10-16T02:09:38;7.70;;;4.50;;
59294;SDS011;45067;44.654;20.200;2022-10-16T02:12:10;8.07;;;4.55;;
59294;SDS011;45067;44.654;20.200;2022-10-16T02:14:38;11.13;;;4.90;;
59294;SDS011;45067;44.654;20.200;2022-10-16T02:17:14;8.55;;;4.53;;
59294;SDS011;45067;44.654;20.200;2022-10-16T02:19:41;5.43;;;3.90;;
59294;SDS011;45067;44.654;20.200;2022-10-16T02:22:08;7.20;;;4.35;;
59294;SDS011;45067;44.654;20.200;2022-10-16T02:24:39;10.05;;;4.55;;
59294;SDS011;45067;44.654;20.200;2022-10-16T02:29:42;9.02;;;4.38;;
59294;SDS011;45067;44.654;20.200;2022-10-16T02:32:10;7.78;;;4.45;;
59294;SDS011;45067;44.654;20.200;2022-10-16T02:34:36;8.48;;;4.82;;
59294;SDS011;45067;44.654;20.200;2022-10-16T02:37:03;7.53;;;4.82;;
59294;SDS011;45067;44.654;20.200;2022-10-16T02:39:30;7.18;;;4.28;;
59294;SDS011;45067;44.654;20.200;2022-10-16T02:42:13;6.70;;;4.22;;
59294;SDS011;45067;44.654;20.200;2022-10-16T02:44:45;8.75;;;5.72;;
59294;SDS011;45067;44.654;20.200;2022-10-16T02:47:12;8.27;;;5.20;;
59294;SDS011;45067;44.654;20.200;2022-10-16T02:49:38;6.70;;;4.53;;
59294;SDS011;45067;44.654;20.200;2022-10-16T02:52:04;11.88;;;4.68;;
59294;SDS011;45067;44.654;20.200;2022-10-16T02:54:30;8.77;;;4.97;;
59294;SDS011;45067;44.654;20.200;2022-10-16T02:56:56;9.93;;;4.78;;
59294;SDS011;45067;44.654;20.200;2022-10-16T02:59:22;6.78;;;4.68;;
59294;SDS011;45067;44.654;20.200;2022-10-16T03:01:49;7.68;;;4.93;;
59294;SDS011;45067;44.654;20.200;2022-10-16T03:04:15;10.13;;;4.50;;
59294;SDS011;45067;44.654;20.200;2022-10-16T03:06:41;8.55;;;4.95;;
59294;SDS011;45067;44.654;20.200;2022-10-16T03:09:07;7.63;;;4.53;;
59294;SDS011;45067;44.654;20.200;2022-10-16T03:11:33;9.02;;;5.30;;
59294;SDS011;45067;44.654;20.200;2022-10-16T03:13:59;7.57;;;4.70;;
59294;SDS011;45067;44.654;20.200;2022-10-16T03:16:25;10.45;;;4.80;;
59294;SDS011;45067;44.654;20.200;2022-10-16T03:18:51;9.38;;;4.78;;
59294;SDS011;45067;44.654;20.200;2022-10-16T03:21:18;6.60;;;4.25;;
59294;SDS011;45067;44.654;20.200;2022-10-16T03:23:44;7.15;;;4.47;;
59294;SDS011;45067;44.654;20.200;2022-10-16T03:26:10;6.50;;;4.25;;
59294;SDS011;45067;44.654;20.200;2022-10-16T03:28:36;7.32;;;3.85;;
59294;SDS011;45067;44.654;20.200;2022-10-16T03:31:02;7.80;;;4.70;;
59294;SDS011;45067;44.654;20.200;2022-10-16T03:36:31;10.75;;;6.20;;
59294;SDS011;45067;44.654;20.200;2022-10-16T03:38:57;9.93;;;5.88;;
59294;SDS011;45067;44.654;20.200;2022-10-16T03:41:23;10.43;;;5.35;;
59294;SDS011;45067;44.654;20.200;2022-10-16T03:43:49;13.70;;;5.95;;
59294;SDS011;45067;44.654;20.200;2022-10-16T03:46:15;10.48;;;5.72;;
59294;SDS011;45067;44.654;20.200;2022-10-16T03:51:45;8.90;;;5.97;;
59294;SDS011;45067;44.654;20.200;2022-10-16T03:54:11;9.65;;;5.30;;
59294;SDS011;45067;44.654;20.200;2022-10-16T03:56:37;11.15;;;5.80;;
59294;SDS011;45067;44.654;20.200;2022-10-16T03:59:04;9.68;;;5.80;;
59294;SDS011;45067;44.654;20.200;2022-10-16T04:01:30;16.52;;;6.35;;
59294;SDS011;45067;44.654;20.200;2022-10-16T04:03:56;9.27;;;6.05;;
59294;SDS011;45067;44.654;20.200;2022-10-16T04:06:22;10.90;;;5.80;;
59294;SDS011;45067;44.654;20.200;2022-10-16T04:08:48;10.13;;;5.60;;
59294;SDS011;45067;44.654;20.200;2022-10-16T04:11:15;10.10;;;5.70;;
59294;SDS011;45067;44.654;20.200;2022-10-16T04:13:41;14.32;;;6.40;;
59294;SDS011;45067;44.654;20.200;2022-10-16T04:16:07;11.30;;;6.10;;
59294;SDS011;45067;44.654;20.200;2022-10-16T04:21:36;9.85;;;5.80;;
59294;SDS011;45067;44.654;20.200;2022-10-16T04:24:03;10.60;;;6.13;;
59294;SDS011;45067;44.654;20.200;2022-10-16T04:26:29;12.40;;;6.32;;
59294;SDS011;45067;44.654;20.200;2022-10-16T04:28:55;14.18;;;6.32;;
59294;SDS011;45067;44.654;20.200;2022-10-16T04:31:21;10.93;;;6.63;;
59294;SDS011;45067;44.654;20.200;2022-10-16T04:36:51;8.63;;;4.72;;
59294;SDS011;45067;44.654;20.200;2022-10-16T04:39:17;9.98;;;5.32;;
59294;SDS011;45067;44.654;20.200;2022-10-16T04:41:43;10.65;;;5.30;;
59294;SDS011;45067;44.654;20.200;2022-10-16T04:44:09;11.18;;;6.30;;
59294;SDS011;45067;44.654;20.200;2022-10-16T04:46:35;10.10;;;6.05;;
59294;SDS011;45067;44.654;20.200;2022-10-16T04:52:05;14.90;;;9.35;;
59294;SDS011;45067;44.654;20.200;2022-10-16T04:54:31;15.35;;;9.57;;
59294;SDS011;45067;44.654;20.200;2022-10-16T04:56:57;18.70;;;10.82;;
59294;SDS011;45067;44.654;20.200;2022-10-16T04:59:23;15.68;;;9.23;;
59294;SDS011;45067;44.654;20.200;2022-10-16T05:01:50;11.60;;;7.32;;
59294;SDS011;45067;44.654;20.200;2022-10-16T05:04:16;12.02;;;7.93;;
59294;SDS011;45067;44.654;20.200;2022-10-16T05:06:42;11.52;;;7.55;;
59294;SDS011;45067;44.654;20.200;2022-10-16T05:09:08;10.82;;;7.13;;
59294;SDS011;45067;44.654;20.200;2022-10-16T05:11:34;11.93;;;7.35;;
59294;SDS011;45067;44.654;20.200;2022-10-16T05:14:01;10.85;;;6.60;;
59294;SDS011;45067;44.654;20.200;2022-10-16T05:16:27;14.68;;;7.45;;
59294;SDS011;45067;44.654;20.200;2022-10-16T05:21:56;17.00;;;8.43;;
59294;SDS011;45067;44.654;20.200;2022-10-16T05:24:22;15.77;;;9.68;;
59294;SDS011;45067;44.654;20.200;2022-10-16T05:26:49;15.40;;;10.15;;
59294;SDS011;45067;44.654;20.200;2022-10-16T05:29:16;15.30;;;9.27;;
59294;SDS011;45067;44.654;20.200;2022-10-16T05:31:42;15.13;;;10.13;;
59294;SDS011;45067;44.654;20.200;2022-10-16T05:37:24;15.63;;;9.40;;
59294;SDS011;45067;44.654;20.200;2022-10-16T05:39:50;17.20;;;12.15;;
59294;SDS011;45067;44.654;20.200;2022-10-16T05:42:17;19.42;;;11.40;;
59294;SDS011;45067;44.654;20.200;2022-10-16T05:44:43;19.33;;;11.30;;
59294;SDS011;45067;44.654;20.200;2022-10-16T05:47:09;18.02;;;9.95;;
59294;SDS011;45067;44.654;20.200;2022-10-16T05:49:35;20.88;;;11.10;;
59294;SDS011;45067;44.654;20.200;2022-10-16T05:52:01;14.45;;;8.65;;
59294;SDS011;45067;44.654;20.200;2022-10-16T05:54:28;16.33;;;10.07;;
59294;SDS011;45067;44.654;20.200;2022-10-16T05:56:54;19.65;;;10.55;;
59294;SDS011;45067;44.654;20.200;2022-10-16T05:59:20;19.00;;;10.88;;
59294;SDS011;45067;44.654;20.200;2022-10-16T06:01:46;16.65;;;9.70;;
59294;SDS011;45067;44.654;20.200;2022-10-16T06:07:15;17.52;;;9.30;;
59294;SDS011;45067;44.654;20.200;2022-10-16T06:09:41;14.52;;;9.40;;
59294;SDS011;45067;44.654;20.200;2022-10-16T06:12:07;13.52;;;8.50;;
59294;SDS011;45067;44.654;20.200;2022-10-16T06:14:34;16.88;;;9.05;;
59294;SDS011;45067;44.654;20.200;2022-10-16T06:17:00;14.30;;;8.10;;
59294;SDS011;45067;44.654;20.200;2022-10-16T06:22:30;12.52;;;8.80;;
59294;SDS011;45067;44.654;20.200;2022-10-16T06:24:56;16.38;;;9.75;;
59294;SDS011;45067;44.654;20.200;2022-10-16T06:27:22;14.90;;;9.40;;
59294;SDS011;45067;44.654;20.200;2022-10-16T06:29:48;15.68;;;9.55;;
59294;SDS011;45067;44.654;20.200;2022-10-16T06:32:14;14.02;;;8.25;;
59294;SDS011;45067;44.654;20.200;2022-10-16T06:34:40;13.93;;;9.13;;
59294;SDS011;45067;44.654;20.200;2022-10-16T06:37:06;17.65;;;9.25;;
59294;SDS011;45067;44.654;20.200;2022-10-16T06:39:32;15.20;;;9.15;;
59294;SDS011;45067;44.654;20.200;2022-10-16T06:41:58;16.20;;;9.07;;
59294;SDS011;45067;44.654;20.200;2022-10-16T06:44:24;16.08;;;9.18;;
59294;SDS011;45067;44.654;20.200;2022-10-16T06:46:50;15.13;;;9.18;;
59294;SDS011;45067;44.654;20.200;2022-10-16T06:52:20;15.13;;;9.05;;
59294;SDS011;45067;44.654;20.200;2022-10-16T06:54:46;13.70;;;8.80;;
59294;SDS011;45067;44.654;20.200;2022-10-16T06:57:13;14.35;;;8.60;;
59294;SDS011;45067;44.654;20.200;2022-10-16T06:59:39;13.68;;;8.27;;
59294;SDS011;45067;44.654;20.200;2022-10-16T07:02:05;14.05;;;8.00;;
59294;SDS011;45067;44.654;20.200;2022-10-16T07:07:35;17.23;;;9.00;;
59294;SDS011;45067;44.654;20.200;2022-10-16T07:10:01;12.50;;;7.05;;
59294;SDS011;45067;44.654;20.200;2022-10-16T07:12:27;11.25;;;7.53;;
59294;SDS011;45067;44.654;20.200;2022-10-16T07:14:54;12.32;;;8.13;;
59294;SDS011;45067;44.654;20.200;2022-10-16T07:17:21;13.90;;;7.85;;
59294;SDS011;45067;44.654;20.200;2022-10-16T07:22:51;14.60;;;9.13;;
59294;SDS011;45067;44.654;20.200;2022-10-16T07:25:17;16.05;;;9.43;;
59294;SDS011;45067;44.654;20.200;2022-10-16T07:27:43;17.40;;;10.30;;
59294;SDS011;45067;44.654;20.200;2022-10-16T07:30:09;14.98;;;9.55;;
59294;SDS011;45067;44.654;20.200;2022-10-16T07:32:35;18.73;;;9.60;;
59294;SDS011;45067;44.654;20.200;2022-10-16T07:35:02;12.52;;;7.50;;
59294;SDS011;45067;44.654;20.200;2022-10-16T07:37:28;11.15;;;7.10;;
59294;SDS011;45067;44.654;20.200;2022-10-16T07:39:54;12.55;;;6.75;;
59294;SDS011;45067;44.654;20.200;2022-10-16T07:42:20;8.63;;;5.53;;
59294;SDS011;45067;44.654;20.200;2022-10-16T07:44:46;9.02;;;5.72;;
59294;SDS011;45067;44.654;20.200;2022-10-16T07:47:13;9.68;;;5.57;;
59294;SDS011;45067;44.654;20.200;2022-10-16T07:52:43;9.23;;;5.38;;
59294;SDS011;45067;44.654;20.200;2022-10-16T07:55:09;10.70;;;5.45;;
59294;SDS011;45067;44.654;20.200;2022-10-16T07:57:35;8.73;;;5.50;;
59294;SDS011;45067;44.654;20.200;2022-10-16T08:00:02;9.88;;;5.95;;
59294;SDS011;45067;44.654;20.200;2022-10-16T08:02:28;10.18;;;5.45;;
59294;SDS011;45067;44.654;20.200;2022-10-16T08:07:58;8.98;;;6.13;;
59294;SDS011;45067;44.654;20.200;2022-10-16T08:10:26;11.15;;;5.72;;
59294;SDS011;45067;44.654;20.200;2022-10-16T08:12:52;9.77;;;5.72;;
59294;SDS011;45067;44.654;20.200;2022-10-16T08:15:18;8.52;;;5.22;;
59294;SDS011;45067;44.654;20.200;2022-10-16T08:17:53;10.50;;;6.15;;
59294;SDS011;45067;44.654;20.200;2022-10-16T08:20:19;8.57;;;5.68;;
59294;SDS011;45067;44.654;20.200;2022-10-16T08:22:45;9.18;;;6.00;;
59294;SDS011;45067;44.654;20.200;2022-10-16T08:25:12;8.57;;;5.70;;
59294;SDS011;45067;44.654;20.200;2022-10-16T08:27:38;11.13;;;6.07;;
59294;SDS011;45067;44.654;20.200;2022-10-16T08:30:04;7.70;;;5.65;;
59294;SDS011;45067;44.654;20.200;2022-10-16T08:32:30;8.68;;;5.70;;
59294;SDS011;45067;44.654;20.200;2022-10-16T08:38:00;11.88;;;7.03;;
59294;SDS011;45067;44.654;20.200;2022-10-16T08:40:27;12.02;;;6.40;;
59294;SDS011;45067;44.654;20.200;2022-10-16T08:48:35;8.77;;;5.35;;
59294;SDS011;45067;44.654;20.200;2022-10-16T08:51:06;8.27;;;6.30;;
59294;SDS011;45067;44.654;20.200;2022-10-16T08:53:36;11.10;;;6.15;;
59294;SDS011;45067;44.654;20.200;2022-10-16T08:56:06;8.43;;;6.40;;
59294;SDS011;45067;44.654;20.200;2022-10-16T08:58:32;9.70;;;5.80;;
59294;SDS011;45067;44.654;20.200;2022-10-16T09:01:03;8.38;;;5.60;;
59294;SDS011;45067;44.654;20.200;2022-10-16T09:06:07;8.77;;;5.82;;
59294;SDS011;45067;44.654;20.200;2022-10-16T09:09:00;10.73;;;5.97;;
59294;SDS011;45067;44.654;20.200;2022-10-16T09:14:12;9.88;;;6.60;;
59294;SDS011;45067;44.654;20.200;2022-10-16T09:16:44;15.20;;;7.15;;
59294;SDS011;45067;44.654;20.200;2022-10-16T09:21:45;8.55;;;5.88;;
59294;SDS011;45067;44.654;20.200;2022-10-16T09:26:39;11.90;;;6.80;;
59294;SDS011;45067;44.654;20.200;2022-10-16T09:29:06;11.73;;;6.35;;
59294;SDS011;45067;44.654;20.200;2022-10-16T09:31:32;10.25;;;6.15;;
59294;SDS011;45067;44.654;20.200;2022-10-16T09:34:02;10.55;;;6.15;;
59294;SDS011;45067;44.654;20.200;2022-10-16T09:36:31;11.52;;;6.70;;
59294;SDS011;45067;44.654;20.200;2022-10-16T09:39:01;11.88;;;6.35;;
59294;SDS011;45067;44.654;20.200;2022-10-16T09:41:28;13.77;;;6.35;;
59294;SDS011;45067;44.654;20.200;2022-10-16T09:43:54;9.77;;;6.80;;
59294;SDS011;45067;44.654;20.200;2022-10-16T09:46:22;17.42;;;7.28;;
59294;SDS011;45067;44.654;20.200;2022-10-16T09:48:50;9.90;;;6.65;;
59294;SDS011;45067;44.654;20.200;2022-10-16T09:51:22;8.82;;;5.80;;
59294;SDS011;45067;44.654;20.200;2022-10-16T09:53:49;10.05;;;5.68;;
59294;SDS011;45067;44.654;20.200;2022-10-16T09:56:23;13.02;;;6.15;;
59294;SDS011;45067;44.654;20.200;2022-10-16T09:58:53;11.95;;;6.63;;
59294;SDS011;45067;44.654;20.200;2022-10-16T10:01:20;11.23;;;6.50;;
59294;SDS011;45067;44.654;20.200;2022-10-16T10:03:47;9.82;;;6.05;;
59294;SDS011;45067;44.654;20.200;2022-10-16T10:06:21;9.20;;;6.28;;
59294;SDS011;45067;44.654;20.200;2022-10-16T10:08:59;10.38;;;6.95;;
59294;SDS011;45067;44.654;20.200;2022-10-16T10:11:38;12.07;;;7.32;;
59294;SDS011;45067;44.654;20.200;2022-10-16T10:14:06;14.35;;;6.32;;
59294;SDS011;45067;44.654;20.200;2022-10-16T10:16:34;14.03;;;7.07;;
59294;SDS011;45067;44.654;20.200;2022-10-16T10:19:01;9.57;;;6.65;;
59294;SDS011;45067;44.654;20.200;2022-10-16T10:21:27;12.73;;;6.60;;
59294;SDS011;45067;44.654;20.200;2022-10-16T10:23:56;9.75;;;6.40;;
59294;SDS011;45067;44.654;20.200;2022-10-16T10:26:23;11.80;;;6.43;;
59294;SDS011;45067;44.654;20.200;2022-10-16T10:31:27;8.98;;;6.53;;
59294;SDS011;45067;44.654;20.200;2022-10-16T10:36:40;9.18;;;5.80;;
59294;SDS011;45067;44.654;20.200;2022-10-16T10:39:27;11.95;;;5.90;;
59294;SDS011;45067;44.654;20.200;2022-10-16T10:44:34;10.18;;;7.22;;
59294;SDS011;45067;44.654;20.200;2022-10-16T10:47:10;11.05;;;6.13;;
59294;SDS011;45067;44.654;20.200;2022-10-16T10:54:50;10.80;;;6.43;;
59294;SDS011;45067;44.654;20.200;2022-10-16T11:00:21;9.15;;;6.50;;
59294;SDS011;45067;44.654;20.200;2022-10-16T11:08:27;10.88;;;6.57;;
59294;SDS011;45067;44.654;20.200;2022-10-16T11:10:53;9.50;;;6.53;;
59294;SDS011;45067;44.654;20.200;2022-10-16T11:13:32;8.82;;;6.78;;
59294;SDS011;45067;44.654;20.200;2022-10-16T11:16:01;8.73;;;6.00;;
59294;SDS011;45067;44.654;20.200;2022-10-16T11:18:33;14.20;;;7.15;;
59294;SDS011;45067;44.654;20.200;2022-10-16T11:21:09;11.93;;;6.65;;
59294;SDS011;45067;44.654;20.200;2022-10-16T11:23:41;11.05;;;6.05;;
59294;SDS011;45067;44.654;20.200;2022-10-16T11:26:11;9.27;;;6.25;;
59294;SDS011;45067;44.654;20.200;2022-10-16T11:28:45;9.00;;;6.45;;
59294;SDS011;45067;44.654;20.200;2022-10-16T11:31:17;10.38;;;6.38;;
59294;SDS011;45067;44.654;20.200;2022-10-16T11:34:07;10.95;;;6.38;;
59294;SDS011;45067;44.654;20.200;2022-10-16T11:36:55;10.07;;;6.65;;
59294;SDS011;45067;44.654;20.200;2022-10-16T11:39:29;11.57;;;6.18;;
59294;SDS011;45067;44.654;20.200;2022-10-16T11:41:59;13.50;;;6.85;;
59294;SDS011;45067;44.654;20.200;2022-10-16T11:47:12;10.32;;;6.38;;
59294;SDS011;45067;44.654;20.200;2022-10-16T11:52:44;9.70;;;6.50;;
59294;SDS011;45067;44.654;20.200;2022-10-16T11:55:17;13.15;;;6.40;;
59294;SDS011;45067;44.654;20.200;2022-10-16T11:57:49;11.35;;;6.65;;
59294;SDS011;45067;44.654;20.200;2022-10-16T12:02:52;12.07;;;8.48;;
59294;SDS011;45067;44.654;20.200;2022-10-16T12:08:23;12.40;;;7.57;;
59294;SDS011;45067;44.654;20.200;2022-10-16T12:10:50;10.05;;;7.28;;
59294;SDS011;45067;44.654;20.200;2022-10-16T12:18:21;10.90;;;9.77;;
59294;SDS011;45067;44.654;20.200;2022-10-16T12:23:52;8.93;;;8.00;;
59294;SDS011;45067;44.654;20.200;2022-10-16T12:26:28;8.75;;;7.85;;
59294;SDS011;45067;44.654;20.200;2022-10-16T12:28:55;10.65;;;7.95;;
59294;SDS011;45067;44.654;20.200;2022-10-16T12:31:22;9.23;;;8.10;;
59294;SDS011;45067;44.654;20.200;2022-10-16T12:33:57;8.45;;;7.57;;
59294;SDS011;45067;44.654;20.200;2022-10-16T12:39:27;9.00;;;7.45;;
59294;SDS011;45067;44.654;20.200;2022-10-16T12:42:01;8.80;;;7.90;;
59294;SDS011;45067;44.654;20.200;2022-10-16T12:44:31;9.02;;;8.20;;
59294;SDS011;45067;44.654;20.200;2022-10-16T12:46:57;9.23;;;8.43;;
59294;SDS011;45067;44.654;20.200;2022-10-16T12:49:31;10.25;;;8.73;;
59294;SDS011;45067;44.654;20.200;2022-10-16T12:51:57;12.90;;;9.30;;
59294;SDS011;45067;44.654;20.200;2022-10-16T13:09:59;11.68;;;9.65;;
59294;SDS011;45067;44.654;20.200;2022-10-16T13:12:32;9.63;;;8.68;;
59294;SDS011;45067;44.654;20.200;2022-10-16T13:15:24;9.77;;;8.88;;
59294;SDS011;45067;44.654;20.200;2022-10-16T13:20:34;8.68;;;7.78;;
59294;SDS011;45067;44.654;20.200;2022-10-16T13:23:07;8.98;;;8.15;;
59294;SDS011;45067;44.654;20.200;2022-10-16T13:28:12;8.60;;;7.57;;
59294;SDS011;45067;44.654;20.200;2022-10-16T13:30:40;9.63;;;8.57;;
59294;SDS011;45067;44.654;20.200;2022-10-16T13:35:34;8.85;;;7.88;;
59294;SDS011;45067;44.654;20.200;2022-10-16T13:40:36;10.10;;;8.88;;
59294;SDS011;45067;44.654;20.200;2022-10-16T13:43:02;9.57;;;8.50;;
59294;SDS011;45067;44.654;20.200;2022-10-16T13:45:28;10.95;;;9.85;;
59294;SDS011;45067;44.654;20.200;2022-10-16T13:48:04;12.68;;;11.48;;
59294;SDS011;45067;44.654;20.200;2022-10-16T13:50:30;9.48;;;7.95;;
59294;SDS011;45067;44.654;20.200;2022-10-16T13:53:06;14.02;;;10.70;;
59294;SDS011;45067;44.654;20.200;2022-10-16T13:55:32;10.95;;;9.73;;
59294;SDS011;45067;44.654;20.200;2022-10-16T13:58:07;7.88;;;7.18;;
59294;SDS011;45067;44.654;20.200;2022-10-16T14:00:33;7.93;;;7.05;;
59294;SDS011;45067;44.654;20.200;2022-10-16T14:03:04;8.70;;;7.72;;
59294;SDS011;45067;44.654;20.200;2022-10-16T14:05:31;9.30;;;8.23;;
59294;SDS011;45067;44.654;20.200;2022-10-16T14:07:57;10.63;;;7.25;;
59294;SDS011;45067;44.654;20.200;2022-10-16T14:10:27;8.38;;;6.53;;
59294;SDS011;45067;44.654;20.200;2022-10-16T14:12:59;8.20;;;7.20;;
59294;SDS011;45067;44.654;20.200;2022-10-16T14:15:25;17.67;;;14.80;;
59294;SDS011;45067;44.654;20.200;2022-10-16T14:17:52;12.00;;;10.38;;
59294;SDS011;45067;44.654;20.200;2022-10-16T14:20:19;7.15;;;6.45;;
59294;SDS011;45067;44.654;20.200;2022-10-16T14:22:46;10.23;;;7.15;;
59294;SDS011;45067;44.654;20.200;2022-10-16T14:27:57;10.90;;;7.20;;
59294;SDS011;45067;44.654;20.200;2022-10-16T14:30:25;8.73;;;5.90;;
59294;SDS011;45067;44.654;20.200;2022-10-16T14:32:58;12.20;;;9.80;;
59294;SDS011;45067;44.654;20.200;2022-10-16T14:35:26;13.02;;;8.48;;
59294;SDS011;45067;44.654;20.200;2022-10-16T14:37:53;13.25;;;7.43;;
59294;SDS011;45067;44.654;20.200;2022-10-16T14:40:20;8.73;;;6.70;;
59294;SDS011;45067;44.654;20.200;2022-10-16T14:42:48;8.80;;;6.50;;
59294;SDS011;45067;44.654;20.200;2022-10-16T14:45:18;9.43;;;6.25;;
59294;SDS011;45067;44.654;20.200;2022-10-16T14:47:49;11.85;;;9.80;;
59294;SDS011;45067;44.654;20.200;2022-10-16T14:50:15;8.68;;;6.70;;
59294;SDS011;45067;44.654;20.200;2022-10-16T14:52:41;9.52;;;7.72;;
59294;SDS011;45067;44.654;20.200;2022-10-16T14:55:09;10.30;;;7.53;;
59294;SDS011;45067;44.654;20.200;2022-10-16T14:57:35;10.13;;;7.25;;
59294;SDS011;45067;44.654;20.200;2022-10-16T15:00:03;11.75;;;7.40;;
59294;SDS011;45067;44.654;20.200;2022-10-16T15:02:31;11.98;;;8.80;;
59294;SDS011;45067;44.654;20.200;2022-10-16T15:04:57;10.90;;;7.53;;
59294;SDS011;45067;44.654;20.200;2022-10-16T15:07:27;7.93;;;6.57;;
59294;SDS011;45067;44.654;20.200;2022-10-16T15:09:53;10.52;;;7.85;;
59294;SDS011;45067;44.654;20.200;2022-10-16T15:12:21;12.27;;;8.35;;
59294;SDS011;45067;44.654;20.200;2022-10-16T15:14:47;12.88;;;9.85;;
59294;SDS011;45067;44.654;20.200;2022-10-16T15:17:13;17.95;;;11.05;;
59294;SDS011;45067;44.654;20.200;2022-10-16T15:19:39;14.75;;;10.13;;
59294;SDS011;45067;44.654;20.200;2022-10-16T15:25:28;16.42;;;10.32;;
59294;SDS011;45067;44.654;20.200;2022-10-16T15:27:55;12.43;;;7.93;;
59294;SDS011;45067;44.654;20.200;2022-10-16T15:30:21;15.45;;;9.07;;
59294;SDS011;45067;44.654;20.200;2022-10-16T15:32:47;14.50;;;10.40;;
59294;SDS011;45067;44.654;20.200;2022-10-16T15:35:13;18.80;;;12.52;;
59294;SDS011;45067;44.654;20.200;2022-10-16T15:37:39;15.90;;;12.15;;
59294;SDS011;45067;44.654;20.200;2022-10-16T15:40:05;20.10;;;15.02;;
59294;SDS011;45067;44.654;20.200;2022-10-16T15:42:31;28.05;;;19.27;;
59294;SDS011;45067;44.654;20.200;2022-10-16T15:44:57;27.02;;;20.27;;
59294;SDS011;45067;44.654;20.200;2022-10-16T15:47:23;27.20;;;23.02;;
59294;SDS011;45067;44.654;20.200;2022-10-16T15:49:50;25.35;;;16.92;;
59294;SDS011;45067;44.654;20.200;2022-10-16T15:55:19;18.15;;;13.63;;
59294;SDS011;45067;44.654;20.200;2022-10-16T15:57:45;16.65;;;11.20;;
59294;SDS011;45067;44.654;20.200;2022-10-16T16:00:13;14.75;;;11.25;;
59294;SDS011;45067;44.654;20.200;2022-10-16T16:02:40;16.67;;;11.35;;
59294;SDS011;45067;44.654;20.200;2022-10-16T16:05:06;21.83;;;13.45;;
59294;SDS011;45067;44.654;20.200;2022-10-16T16:07:36;15.65;;;10.80;;
59294;SDS011;45067;44.654;20.200;2022-10-16T16:12:28;15.73;;;10.27;;
59294;SDS011;45067;44.654;20.200;2022-10-16T16:14:55;14.55;;;10.60;;
59294;SDS011;45067;44.654;20.200;2022-10-16T16:17:21;16.65;;;10.85;;
59294;SDS011;45067;44.654;20.200;2022-10-16T16:19:47;19.40;;;14.25;;
59294;SDS011;45067;44.654;20.200;2022-10-16T16:25:16;21.10;;;14.25;;
59294;SDS011;45067;44.654;20.200;2022-10-16T16:27:42;21.25;;;13.75;;
59294;SDS011;45067;44.654;20.200;2022-10-16T16:30:09;21.63;;;14.13;;
59294;SDS011;45067;44.654;20.200;2022-10-16T16:32:36;21.00;;;13.45;;
59294;SDS011;45067;44.654;20.200;2022-10-16T16:35:02;22.88;;;13.68;;
59294;SDS011;45067;44.654;20.200;2022-10-16T16:40:33;20.40;;;13.60;;
59294;SDS011;45067;44.654;20.200;2022-10-16T16:42:59;17.48;;;12.05;;
59294;SDS011;45067;44.654;20.200;2022-10-16T16:45:25;17.77;;;11.18;;
59294;SDS011;45067;44.654;20.200;2022-10-16T16:47:51;16.42;;;11.70;;
59294;SDS011;45067;44.654;20.200;2022-10-16T16:50:17;17.73;;;11.07;;
59294;SDS011;45067;44.654;20.200;2022-10-16T16:52:43;19.15;;;11.18;;
59294;SDS011;45067;44.654;20.200;2022-10-16T16:55:09;16.15;;;11.85;;
59294;SDS011;45067;44.654;20.200;2022-10-16T16:57:35;16.92;;;11.80;;
59294;SDS011;45067;44.654;20.200;2022-10-16T17:00:02;17.08;;;11.48;;
59294;SDS011;45067;44.654;20.200;2022-10-16T17:02:28;15.57;;;11.35;;
59294;SDS011;45067;44.654;20.200;2022-10-16T17:04:54;15.93;;;10.68;;
59294;SDS011;45067;44.654;20.200;2022-10-16T17:10:26;15.82;;;11.10;;
59294;SDS011;45067;44.654;20.200;2022-10-16T17:12:52;20.02;;;12.13;;
59294;SDS011;45067;44.654;20.200;2022-10-16T17:15:18;22.67;;;14.45;;
59294;SDS011;45067;44.654;20.200;2022-10-16T17:17:44;23.27;;;15.27;;
59294;SDS011;45067;44.654;20.200;2022-10-16T17:20:10;21.48;;;13.88;;
59294;SDS011;45067;44.654;20.200;2022-10-16T17:25:40;26.65;;;17.65;;